Time;durP1;ratioP1;P1;durP2;ratioP2;P2;SDS_P1;SDS_P2;PMS_P1;PMS_P2;Temp;Humidity;BMP_temperature;BMP_pressure;BME280_temperature;BME280_humidity;BME280_pressure;Samples;Min_cycle;Max_cycle;Signal;HPM_P1;HPM_P2
2023/04/24 00:02:03;;;;;;;7.30;5.50;;;;;;;17.76;36.66;99472.86;104312;1257;73117;-63
2023/04/24 00:04:31;;;;;;;6.50;5.10;;;;;;;17.75;36.13;99474.56;104250;1256;59627;-63
2023/04/24 00:06:59;;;;;;;7.50;5.50;;;;;;;17.74;36.58;99477.27;104280;1257;62580;-62
2023/04/24 00:09:27;;;;;;;7.30;5.40;;;;;;;17.72;36.83;99477.24;104344;1264;72762;-62
2023/04/24 00:11:54;;;;;;;7.90;5.60;;;;;;;17.69;37.15;99479.55;104000;1261;70289;-63
2023/04/24 00:14:21;;;;;;;6.40;5.40;;;;;;;17.69;37.19;99477.99;104503;1262;72418;-62
2023/04/24 00:16:48;;;;;;;6.80;5.80;;;;;;;17.71;37.44;99480.64;104538;1254;60299;-62
2023/04/24 00:19:16;;;;;;;5.70;5.10;;;;;;;17.72;37.43;99479.02;104429;1251;61574;-62
2023/04/24 00:21:43;;;;;;;7.30;5.30;;;;;;;17.75;37.58;99474.52;106083;1251;73103;-64
2023/04/24 00:24:10;;;;;;;7.60;5.10;;;;;;;17.82;37.68;99475.75;108381;1250;71623;-64
2023/04/24 00:26:37;;;;;;;7.10;5.50;;;;;;;17.90;37.29;99476.29;105334;1252;73129;-62
2023/04/24 00:29:05;;;;;;;7.80;5.30;;;;;;;17.93;37.35;99475.87;104261;1259;59801;-62
2023/04/24 00:31:34;;;;;;;6.40;5.60;;;;;;;17.98;37.20;99475.30;104337;1254;59858;-62
2023/04/24 00:34:02;;;;;;;5.60;5.00;;;;;;;18.02;37.84;99473.61;104335;1257;72841;-63
2023/04/24 00:36:30;;;;;;;8.70;4.80;;;;;;;18.03;37.82;99476.02;104366;1261;70612;-63
2023/04/24 00:38:57;;;;;;;6.70;5.20;;;;;;;18.07;38.06;99476.61;104518;1256;72208;-62
2023/04/24 00:41:25;;;;;;;5.30;4.70;;;;;;;18.10;37.84;99475.27;104381;1254;59761;-62
2023/04/24 00:43:52;;;;;;;5.30;4.70;;;;;;;18.14;38.15;99476.06;104388;1255;60349;-64
2023/04/24 00:46:19;;;;;;;6.20;4.30;;;;;;;18.12;39.00;99474.56;104272;1267;74486;-62
2023/04/24 00:48:47;;;;;;;5.00;4.20;;;;;;;18.14;39.62;99475.34;104339;1267;69494;-61
2023/04/24 00:51:15;;;;;;;5.90;4.30;;;;;;;18.19;40.07;99472.84;104351;1253;72644;-61
2023/04/24 00:53:42;;;;;;;5.70;4.60;;;;;;;18.25;39.74;99476.10;104231;1258;60832;-62
2023/04/24 00:56:10;;;;;;;5.70;4.90;;;;;;;18.22;39.69;99470.13;104327;1256;61990;-62
2023/04/24 00:58:37;;;;;;;6.50;5.20;;;;;;;18.34;39.22;99465.84;104479;1256;73460;-61
2023/04/24 01:01:06;;;;;;;5.90;5.30;;;;;;;18.42;39.27;99469.13;104474;1257;69700;-62
2023/04/24 01:03:36;;;;;;;6.30;5.60;;;;;;;18.48;39.50;99467.73;104404;1262;72554;-61
2023/04/24 01:06:04;;;;;;;6.40;5.40;;;;;;;18.53;39.54;99468.41;104410;1257;61260;-61
2023/04/24 01:08:31;;;;;;;8.20;5.60;;;;;;;18.56;39.10;99465.30;104406;1252;60321;-62
2023/04/24 01:10:58;;;;;;;8.30;5.90;;;;;;;18.60;39.18;99466.74;104458;1258;73437;-62
2023/04/24 01:13:25;;;;;;;7.40;6.00;;;;;;;18.65;39.40;99463.71;104351;1257;70039;-62
2023/04/24 01:15:52;;;;;;;8.40;5.50;;;;;;;18.67;39.59;99460.94;104322;1253;73858;-62
2023/04/24 01:18:21;;;;;;;8.10;5.70;;;;;;;18.71;40.26;99459.91;104284;1260;62873;-61
2023/04/24 01:20:51;;;;;;;7.80;5.60;;;;;;;18.76;40.73;99456.35;104250;1256;61023;-61
2023/04/24 01:23:18;;;;;;;6.10;5.50;;;;;;;18.74;41.98;99454.34;104419;1254;72915;-61
2023/04/24 01:25:45;;;;;;;8.00;5.70;;;;;;;18.83;41.98;99454.52;104372;1259;69952;-62
2023/04/24 01:28:13;;;;;;;5.30;4.70;;;;;;;18.90;42.56;99455.71;104255;1267;72964;-62
2023/04/24 01:30:41;;;;;;;5.50;5.00;;;;;;;18.93;42.81;99456.58;104267;1254;62355;-62
2023/04/24 01:33:08;;;;;;;5.50;4.90;;;;;;;18.96;42.60;99455.94;104372;1259;60873;-62
2023/04/24 01:35:37;;;;;;;7.10;5.10;;;;;;;18.98;42.68;99454.77;104368;1257;73986;-63
2023/04/24 01:38:05;;;;;;;4.70;4.20;;;;;;;19.00;43.18;99455.96;104420;1259;70042;-61
2023/04/24 01:40:32;;;;;;;5.50;4.90;;;;;;;19.01;43.11;99452.19;104273;1256;75226;-61
2023/04/24 01:42:59;;;;;;;6.70;5.40;;;;;;;19.02;42.97;99453.15;104300;1254;61545;-62
2023/04/24 01:45:27;;;;;;;5.20;4.60;;;;;;;19.06;42.60;99450.93;104348;1257;62858;-61
2023/04/24 01:47:56;;;;;;;6.70;4.60;;;;;;;19.08;41.82;99443.42;104357;1259;72486;-62
2023/04/24 01:50:23;;;;;;;6.60;5.00;;;;;;;19.13;41.28;99443.98;104443;1257;70305;-62
2023/04/24 01:52:50;;;;;;;9.60;4.30;;;;;;;19.16;41.26;99443.50;104604;1253;72242;-61
2023/04/24 01:55:18;;;;;;;5.40;4.40;;;;;;;19.19;41.18;99441.16;104247;1252;60421;-62
2023/04/24 01:57:45;;;;;;;4.90;4.40;;;;;;;19.22;41.53;99442.51;104346;1253;60002;-62
2023/04/24 02:00:13;;;;;;;4.70;4.00;;;;;;;19.22;41.13;99444.09;104314;1253;72585;-62
2023/04/24 02:02:40;;;;;;;5.30;4.50;;;;;;;19.22;41.18;99439.10;104325;1255;69979;-61
2023/04/24 02:05:10;;;;;;;5.90;4.60;;;;;;;19.22;41.71;99437.49;104319;1254;74996;-62
2023/04/24 02:07:37;;;;;;;5.10;4.60;;;;;;;19.21;42.22;99433.89;104351;1253;61759;-62
2023/04/24 02:10:05;;;;;;;5.80;4.20;;;;;;;19.20;42.50;99434.70;104624;1253;60485;-63
2023/04/24 02:12:32;;;;;;;6.40;4.30;;;;;;;19.26;42.38;99431.84;104424;1263;76314;-64
2023/04/24 02:15:00;;;;;;;6.20;4.30;;;;;;;19.32;42.49;99430.45;104376;1262;69468;-61
2023/04/24 02:17:27;;;;;;;7.90;4.40;;;;;;;19.36;42.63;99429.60;104309;1256;73125;-61
2023/04/24 02:19:54;;;;;;;5.30;4.30;;;;;;;19.39;42.35;99428.33;104359;1267;62000;-60
2023/04/24 02:22:21;;;;;;;4.30;3.50;;;;;;;19.40;42.64;99426.77;104338;1257;60511;-61
2023/04/24 02:24:48;;;;;;;6.90;4.20;;;;;;;19.40;42.88;99426.63;104309;1251;74562;-60
2023/04/24 02:27:15;;;;;;;4.50;4.00;;;;;;;19.40;42.64;99426.04;104228;1258;70726;-60
2023/04/24 02:29:42;;;;;;;5.20;4.10;;;;;;;19.40;42.73;99425.59;104370;1259;73158;-61
2023/04/24 02:32:11;;;;;;;8.10;4.60;;;;;;;19.38;42.67;99425.20;104297;1259;62319;-61
2023/04/24 02:34:39;;;;;;;9.00;5.40;;;;;;;19.36;42.26;99424.85;104409;1254;60672;-61
2023/04/24 02:37:06;;;;;;;6.50;4.80;;;;;;;19.31;42.17;99422.90;104249;1269;74719;-61
2023/04/24 02:39:35;;;;;;;8.60;5.00;;;;;;;19.26;42.47;99424.04;104325;1257;70355;-61
2023/04/24 02:42:03;;;;;;;8.10;4.80;;;;;;;19.21;42.05;99426.02;104358;1257;72930;-61
2023/04/24 02:44:30;;;;;;;6.40;4.60;;;;;;;19.19;42.03;99427.81;104240;1262;62676;-61
2023/04/24 02:46:57;;;;;;;6.10;5.10;;;;;;;19.20;42.00;99428.29;104272;1265;60924;-62
2023/04/24 02:49:24;;;;;;;6.70;4.40;;;;;;;19.19;41.76;99426.37;104601;1254;73848;-61
2023/04/24 02:51:51;;;;;;;5.10;4.60;;;;;;;19.20;41.40;99427.57;104247;1259;72152;-61
2023/04/24 02:54:18;;;;;;;5.50;4.90;;;;;;;19.18;41.33;99425.92;104277;1265;72397;-61
2023/04/24 02:56:45;;;;;;;6.70;5.10;;;;;;;19.19;41.50;99425.68;104296;1256;63017;-61
2023/04/24 02:59:13;;;;;;;5.80;5.00;;;;;;;19.21;41.42;99425.11;104284;1257;60753;-61
2023/04/24 03:01:40;;;;;;;5.60;4.60;;;;;;;19.21;41.78;99422.83;104450;1256;73725;-62
2023/04/24 03:04:07;;;;;;;6.60;4.80;;;;;;;19.23;41.67;99423.42;104338;1274;69537;-61
2023/04/24 03:06:35;;;;;;;8.10;4.60;;;;;;;19.26;41.71;99422.48;104380;1258;73819;-61
2023/04/24 03:09:03;;;;;;;4.90;4.20;;;;;;;19.29;41.54;99418.95;104416;1256;61391;-61
2023/04/24 03:11:31;;;;;;;5.60;5.00;;;;;;;19.34;41.02;99416.77;104328;1259;62554;-61
2023/04/24 03:13:58;;;;;;;6.90;5.10;;;;;;;19.35;40.96;99420.63;104403;1269;73386;-61
2023/04/24 03:16:25;;;;;;;6.50;5.20;;;;;;;19.35;41.02;99416.06;104523;1265;69915;-61
2023/04/24 03:18:54;;;;;;;7.10;5.10;;;;;;;19.38;40.61;99420.58;104765;1252;73430;-60
2023/04/24 03:21:23;;;;;;;7.60;5.40;;;;;;;19.38;40.52;99417.55;104240;1254;63169;-61
2023/04/24 03:23:50;;;;;;;5.80;5.30;;;;;;;19.38;40.46;99420.35;104410;1251;60924;-60
2023/04/24 03:26:18;;;;;;;6.90;5.70;;;;;;;19.43;40.25;99418.77;104322;1250;74200;-60
2023/04/24 03:28:56;;;;;;;8.20;5.80;;;;;;;19.44;40.55;99421.69;104620;1255;71522;-60
2023/04/24 03:31:23;;;;;;;6.40;5.70;;;;;;;19.47;40.92;99424.49;105072;1256;73432;-60
2023/04/24 03:33:51;;;;;;;8.10;6.80;;;;;;;19.53;41.22;99428.39;104479;1255;62631;-60
2023/04/24 03:36:19;;;;;;;7.20;6.30;;;;;;;19.57;41.49;99429.27;104401;1252;60744;-60
2023/04/24 03:38:46;;;;;;;7.80;6.50;;;;;;;19.59;41.37;99427.73;104342;1257;74207;-60
2023/04/24 03:41:21;;;;;;;8.10;6.60;;;;;;;19.61;41.65;99427.85;104347;1257;69220;-60
2023/04/24 03:43:53;;;;;;;9.00;7.20;;;;;;;19.63;42.10;99424.85;104298;1253;73899;-62
2023/04/24 03:46:20;;;;;;;10.60;7.60;;;;;;;19.68;41.84;99426.42;104364;1251;64278;-60
2023/04/24 03:48:53;;;;;;;10.20;7.20;;;;;;;19.73;42.30;99429.56;104457;1260;60556;-61
2023/04/24 03:51:22;;;;;;;9.00;7.70;;;;;;;19.76;42.09;99433.23;104418;1255;73611;-60
2023/04/24 03:53:51;;;;;;;10.00;6.90;;;;;;;19.80;41.87;99436.64;104667;1250;69364;-60
2023/04/24 03:56:20;;;;;;;8.60;7.30;;;;;;;19.89;41.43;99438.05;104236;1256;75029;-64
2023/04/24 03:58:47;;;;;;;10.20;6.30;;;;;;;19.91;41.11;99438.24;104310;1258;60876;-60
2023/04/24 04:01:15;;;;;;;8.50;6.60;;;;;;;19.79;41.37;99438.70;104508;1251;60834;-60
2023/04/24 04:03:49;;;;;;;8.70;6.70;;;;;;;19.60;42.72;99444.31;104346;1267;74417;-60
2023/04/24 04:06:19;;;;;;;7.40;5.90;;;;;;;19.54;42.44;99440.55;104368;1258;69733;-60
2023/04/24 04:08:46;;;;;;;7.50;6.40;;;;;;;19.64;41.98;99437.63;104565;1269;73482;-60
2023/04/24 04:11:14;;;;;;;7.40;6.30;;;;;;;19.69;42.55;99441.41;104357;1264;61580;-61
2023/04/24 04:13:41;;;;;;;7.40;5.90;;;;;;;19.84;42.66;99443.39;104347;1266;60580;-60
2023/04/24 04:16:08;;;;;;;7.40;6.20;;;;;;;19.98;43.10;99441.20;104347;1256;76372;-60
2023/04/24 04:18:36;;;;;;;6.20;5.60;;;;;;;20.08;43.18;99441.89;104337;1259;69836;-62
2023/04/24 04:21:04;;;;;;;7.40;5.70;;;;;;;20.15;42.67;99439.94;104315;1257;72194;-62
2023/04/24 04:23:31;;;;;;;9.30;6.60;;;;;;;20.13;41.90;99437.73;104302;1257;62900;-63
2023/04/24 04:26:11;;;;;;;8.10;6.70;;;;;;;19.99;42.07;99440.05;104363;1259;60553;-64
2023/04/24 04:28:52;;;;;;;9.80;6.40;;;;;;;19.91;43.36;99439.68;104382;1256;73358;-65
2023/04/24 04:31:20;;;;;;;8.40;6.50;;;;;;;19.96;43.12;99440.44;104331;1253;70957;-65
2023/04/24 04:33:48;;;;;;;7.40;6.10;;;;;;;20.10;42.84;99439.43;104384;1251;72729;-67
2023/04/24 04:36:18;;;;;;;8.00;6.80;;;;;;;20.16;42.47;99441.40;104436;1250;61652;-68
2023/04/24 04:38:49;;;;;;;7.60;6.50;;;;;;;20.24;43.13;99444.28;104492;1260;60772;-70
2023/04/24 04:41:34;;;;;;;9.30;6.50;;;;;;;20.32;43.24;99441.87;104796;1256;74263;-64
2023/04/24 04:44:04;;;;;;;10.30;6.00;;;;;;;20.40;43.22;99442.91;104351;1253;71438;-71
2023/04/24 04:46:36;;;;;;;7.40;6.10;;;;;;;20.58;42.61;99443.84;104278;1253;74858;-69
2023/04/24 04:49:21;;;;;;;7.20;5.10;;;;;;;20.77;41.67;99442.94;104369;1258;63870;-68
2023/04/24 04:51:50;;;;;;;5.80;5.10;;;;;;;20.92;41.52;99440.20;104358;1250;62034;-67
2023/04/24 04:54:18;;;;;;;6.00;4.90;;;;;;;21.06;41.19;99442.68;104358;1270;73631;-67
2023/04/24 04:56:45;;;;;;;5.60;4.60;;;;;;;21.21;41.08;99441.48;104372;1258;71331;-68
2023/04/24 04:59:12;;;;;;;5.10;4.70;;;;;;;21.39;40.72;99439.92;104319;1250;72395;-69
2023/04/24 05:01:40;;;;;;;;;;;;;;;21.54;40.25;99436.16;104434;1251;61027;-70
2023/04/24 05:04:07;;;;;;;;;;;;;;;21.69;39.94;99438.20;104425;1258;60418;-67
2023/04/24 05:06:36;;;;;;;4.20;3.50;;;;;;;21.75;39.13;99434.06;104457;1257;73833;-70
2023/04/24 05:09:04;;;;;;;4.00;3.70;;;;;;;21.78;39.07;99433.67;104490;1250;70320;-68
2023/04/24 05:11:55;;;;;;;6.10;4.20;;;;;;;21.86;39.37;99432.39;104221;1258;73217;-66
2023/04/24 05:14:22;;;;;;;5.10;3.90;;;;;;;21.93;39.28;99431.01;104335;1257;62675;-65
2023/04/24 05:16:50;;;;;;;4.20;3.80;;;;;;;22.02;39.06;99431.62;104367;1259;60416;-64
2023/04/24 05:19:19;;;;;;;6.40;4.70;;;;;;;22.08;38.79;99430.32;104800;1250;74040;-66
2023/04/24 05:21:46;;;;;;;4.80;4.30;;;;;;;22.07;38.68;99434.65;104308;1265;69760;-66
2023/04/24 05:24:14;;;;;;;4.90;4.40;;;;;;;22.09;38.85;99434.32;104379;1254;72731;-65
2023/04/24 05:27:00;;;;;;;5.00;4.50;;;;;;;22.13;38.96;99435.18;104504;1265;61811;-65
2023/04/24 05:29:34;;;;;;;5.10;4.20;;;;;;;22.13;38.92;99434.66;104475;1251;63222;-68
2023/04/24 05:32:03;;;;;;;6.10;4.60;;;;;;;22.15;38.70;99431.43;104321;1251;73674;-68
2023/04/24 05:34:30;;;;;;;6.60;4.40;;;;;;;22.16;38.88;99427.95;104585;1254;69788;-68
2023/04/24 05:36:57;;;;;;;7.30;5.00;;;;;;;22.23;38.98;99429.45;104408;1256;73239;-68
2023/04/24 05:39:25;;;;;;;6.00;4.70;;;;;;;22.36;38.81;99422.48;104483;1250;61017;-67
2023/04/24 05:41:53;;;;;;;5.20;4.70;;;;;;;22.49;39.03;99422.38;104321;1269;62900;-67
2023/04/24 05:44:20;;;;;;;5.60;4.80;;;;;;;22.60;38.54;99416.23;104335;1257;74119;-68
2023/04/24 05:46:47;;;;;;;4.60;4.20;;;;;;;22.72;38.61;99421.02;104516;1251;71072;-68
2023/04/24 05:49:15;;;;;;;6.10;4.40;;;;;;;22.88;38.45;99419.17;104402;1249;76124;-69
2023/04/24 05:51:42;;;;;;;5.00;4.20;;;;;;;22.97;38.39;99420.70;104302;1252;60530;-68
2023/04/24 05:54:11;;;;;;;5.80;4.50;;;;;;;23.12;38.40;99418.52;104314;1250;61194;-69
2023/04/24 05:56:40;;;;;;;5.20;4.30;;;;;;;23.26;38.10;99419.70;104363;1250;74758;-67
2023/04/24 05:59:09;;;;;;;6.50;4.50;;;;;;;23.37;37.94;99417.19;104411;1257;71283;-69
2023/04/24 06:01:37;;;;;;;4.70;4.20;;;;;;;23.44;37.80;99418.04;104558;1254;73057;-68
2023/04/24 06:04:10;;;;;;;4.30;3.90;;;;;;;23.53;37.40;99415.09;104638;1260;60572;-70
2023/04/24 06:06:37;;;;;;;4.40;4.00;;;;;;;23.62;36.94;99413.52;104478;1257;61796;-69
2023/04/24 06:09:04;;;;;;;4.30;3.60;;;;;;;23.73;36.93;99412.15;104524;1251;76535;-69
2023/04/24 06:11:32;;;;;;;5.00;3.60;;;;;;;23.82;36.52;99411.98;104469;1251;69770;-66
2023/04/24 06:13:59;;;;;;;4.20;3.50;;;;;;;23.86;36.42;99410.66;104384;1269;73124;-66
2023/04/24 06:16:41;;;;;;;3.10;2.80;;;;;;;23.93;35.82;99411.23;104534;1252;60534;-67
2023/04/24 06:19:19;;;;;;;3.40;3.00;;;;;;;24.01;35.85;99411.08;104854;1256;61008;-66
2023/04/24 06:21:46;;;;;;;4.60;3.30;;;;;;;24.08;35.74;99415.27;104601;1250;74050;-67
2023/04/24 06:24:14;;;;;;;3.20;2.90;;;;;;;24.18;35.64;99415.27;104603;1256;70248;-67
2023/04/24 06:26:41;;;;;;;4.50;3.30;;;;;;;24.25;35.44;99417.55;104672;1253;72840;-67
2023/04/24 06:29:08;;;;;;;2.90;2.60;;;;;;;24.34;35.24;99415.25;104489;1250;60553;-65
2023/04/24 06:31:36;;;;;;;2.90;2.70;;;;;;;24.39;35.08;99419.67;104629;1250;60539;-66
2023/04/24 06:34:04;;;;;;;2.80;2.50;;;;;;;24.43;34.75;99413.92;104834;1252;75548;-66
2023/04/24 06:36:32;;;;;;;4.40;3.00;;;;;;;24.51;34.60;99419.73;104667;1256;70322;-66
2023/04/24 06:38:59;;;;;;;4.30;3.00;;;;;;;24.57;34.57;99419.83;104785;1255;74617;-66
2023/04/24 06:41:27;;;;;;;2.70;2.50;;;;;;;24.64;34.41;99418.88;104487;1264;60575;-66
2023/04/24 06:43:54;;;;;;;;;;;;;;;24.72;33.31;99417.87;104656;1256;62935;-65
2023/04/24 06:46:23;;;;;;;2.70;2.40;;;;;;;24.85;33.15;99419.60;104353;1250;75572;-67
2023/04/24 06:48:50;;;;;;;2.40;2.20;;;;;;;24.85;32.81;99418.16;104368;1256;70215;-66
2023/04/24 06:51:18;;;;;;;2.20;2.00;;;;;;;24.92;32.62;99419.02;104806;1262;74738;-66
2023/04/24 06:53:45;;;;;;;2.00;1.80;;;;;;;25.01;32.58;99417.69;104413;1254;61096;-65
2023/04/24 06:56:14;;;;;;;2.90;1.80;;;;;;;25.05;32.27;99415.69;104605;1257;61491;-64
2023/04/24 06:58:42;;;;;;;2.40;1.90;;;;;;;25.09;32.40;99413.98;104704;1251;75195;-70
2023/04/24 07:01:10;;;;;;;2.80;1.70;;;;;;;25.14;32.06;99415.80;104456;1251;70467;-68
2023/04/24 07:03:37;;;;;;;4.30;2.00;;;;;;;25.18;32.40;99418.54;105011;1251;73647;-65
2023/04/24 07:06:05;;;;;;;2.70;1.80;;;;;;;25.23;32.02;99417.83;104536;1255;60808;-65
2023/04/24 07:08:32;;;;;;;2.50;1.80;;;;;;;25.35;31.34;99419.80;104860;1249;62167;-65
2023/04/24 07:11:00;;;;;;;1.60;1.50;;;;;;;25.39;31.21;99422.07;104574;1256;74293;-65
2023/04/24 07:13:27;;;;;;;4.90;1.50;;;;;;;25.48;30.92;99418.92;104662;1256;70217;-66
2023/04/24 07:15:55;;;;;;;2.00;1.70;;;;;;;25.55;30.54;99417.42;104289;1270;75234;-66
2023/04/24 07:18:23;;;;;;;2.60;1.70;;;;;;;25.62;30.27;99421.00;104414;1261;60915;-64
2023/04/24 07:20:50;;;;;;;1.50;1.30;;;;;;;25.70;30.29;99417.26;104848;1251;60587;-66
2023/04/24 07:23:18;;;;;;;2.00;1.50;;;;;;;25.76;29.87;99414.81;104579;1251;75270;-66
2023/04/24 07:25:45;;;;;;;1.60;1.50;;;;;;;25.85;29.73;99416.15;104360;1271;71898;-66
2023/04/24 07:28:13;;;;;;;1.70;1.60;;;;;;;25.94;29.72;99416.27;104374;1257;73567;-67
2023/04/24 07:30:40;;;;;;;3.70;1.50;;;;;;;26.00;29.34;99417.20;104516;1256;62175;-66
2023/04/24 07:33:07;;;;;;;1.80;1.40;;;;;;;26.05;28.07;99413.05;104573;1251;60503;-67
2023/04/24 07:35:35;;;;;;;1.80;1.30;;;;;;;26.17;28.40;99413.94;104709;1253;76153;-68
2023/04/24 07:38:02;;;;;;;2.40;1.30;;;;;;;26.21;28.68;99410.77;104373;1270;70859;-66
2023/04/24 07:40:29;;;;;;;1.20;1.10;;;;;;;26.26;27.99;99410.00;104962;1252;75153;-67
2023/04/24 07:42:56;;;;;;;1.80;1.60;;;;;;;26.28;28.48;99411.79;104498;1253;61236;-69
2023/04/24 07:45:25;;;;;;;1.50;1.40;;;;;;;26.36;28.80;99408.23;104505;1257;60202;-67
2023/04/24 07:47:53;;;;;;;2.00;1.60;;;;;;;26.44;28.42;99407.96;104513;1257;74496;-68
2023/04/24 07:50:20;;;;;;;1.70;1.40;;;;;;;26.50;28.27;99404.31;104703;1256;69489;-67
2023/04/24 07:52:48;;;;;;;4.40;1.30;;;;;;;26.53;27.89;99407.13;104523;1256;75185;-67
2023/04/24 07:55:15;;;;;;;1.20;1.10;;;;;;;26.58;27.63;99404.09;104323;1252;61393;-67
2023/04/24 07:57:42;;;;;;;1.60;1.40;;;;;;;26.66;27.45;99403.48;104617;1255;62578;-68
2023/04/24 08:00:10;;;;;;;2.90;1.30;;;;;;;26.71;27.58;99404.88;104468;1254;73454;-67
2023/04/24 08:02:37;;;;;;;;;;;;;;;26.78;27.43;99401.83;104455;1266;70568;-68
2023/04/24 08:05:05;;;;;;;2.90;1.10;;;;;;;26.92;26.83;99407.95;104589;1254;73296;-68
2023/04/24 08:07:33;;;;;;;1.60;1.20;;;;;;;26.91;27.01;99406.30;104403;1270;61316;-68
2023/04/24 08:10:00;;;;;;;4.60;1.30;;;;;;;26.91;27.04;99403.77;104610;1250;61858;-67
2023/04/24 08:12:28;;;;;;;2.30;1.50;;;;;;;26.97;26.77;99406.77;104199;1263;75105;-66
2023/04/24 08:14:56;;;;;;;1.30;1.20;;;;;;;27.04;26.78;99402.38;104528;1256;69301;-65
2023/04/24 08:17:23;;;;;;;1.60;1.40;;;;;;;27.13;26.92;99401.35;104790;1255;72655;-66
2023/04/24 08:19:53;;;;;;;1.40;1.30;;;;;;;27.18;26.42;99400.61;104555;1253;60685;-70
2023/04/24 08:22:20;;;;;;;2.40;1.10;;;;;;;27.18;26.18;99395.71;104466;1256;60926;-67
2023/04/24 08:24:47;;;;;;;3.30;1.40;;;;;;;27.24;26.27;99395.29;104461;1253;76314;-67
2023/04/24 08:27:14;;;;;;;1.70;1.20;;;;;;;27.36;26.15;99392.50;104425;1259;71754;-64
2023/04/24 08:29:41;;;;;;;1.50;1.40;;;;;;;27.45;26.27;99393.06;104496;1258;72852;-65
2023/04/24 08:32:09;;;;;;;2.50;1.10;;;;;;;27.52;25.95;99392.72;104503;1259;63250;-63
2023/04/24 08:34:36;;;;;;;1.90;1.30;;;;;;;27.55;25.61;99387.88;104436;1253;61251;-65
2023/04/24 08:37:03;;;;;;;1.00;1.00;;;;;;;27.54;25.32;99385.96;104445;1259;75523;-63
2023/04/24 08:39:30;;;;;;;1.30;1.20;;;;;;;27.56;25.44;99385.73;104493;1256;70302;-69
2023/04/24 08:42:04;;;;;;;2.70;1.30;;;;;;;27.59;25.61;99380.39;104286;1253;72603;-67
2023/04/24 08:44:32;;;;;;;1.20;1.10;;;;;;;27.57;25.06;99381.86;104490;1253;60624;-66
2023/04/24 08:47:03;;;;;;;1.60;1.30;;;;;;;27.47;25.71;99381.06;104416;1252;60531;-66
2023/04/24 08:49:30;;;;;;;1.40;1.30;;;;;;;27.41;25.82;99377.81;104388;1259;74249;-64
2023/04/24 08:51:57;;;;;;;1.40;1.20;;;;;;;27.36;25.83;99376.05;104558;1258;69940;-65
2023/04/24 08:54:25;;;;;;;2.40;1.30;;;;;;;27.37;25.71;99371.92;104699;1257;75202;-63
2023/04/24 08:56:52;;;;;;;1.50;1.20;;;;;;;27.34;25.54;99367.48;104757;1253;60599;-63
2023/04/24 08:59:19;;;;;;;1.20;1.10;;;;;;;27.32;25.60;99371.13;104607;1257;60533;-64
2023/04/24 09:01:46;;;;;;;2.50;1.20;;;;;;;27.37;25.58;99361.97;104649;1258;73410;-65
2023/04/24 09:04:15;;;;;;;1.60;1.20;;;;;;;27.41;25.02;99359.64;105178;1257;70897;-64
2023/04/24 09:06:43;;;;;;;1.40;1.30;;;;;;;27.49;25.20;99351.14;104956;1254;75180;-66
2023/04/24 09:09:11;;;;;;;2.10;1.10;;;;;;;27.57;25.10;99348.25;104585;1257;61433;-64
2023/04/24 09:11:38;;;;;;;;;;;;;;;27.66;25.33;99345.36;104465;1257;60517;-64
2023/04/24 09:14:05;;;;;;;1.10;1.00;;;;;;;27.81;24.81;99347.71;104677;1256;75664;-66
2023/04/24 09:16:33;;;;;;;1.20;1.10;;;;;;;27.80;24.44;99343.20;104724;1257;70506;-67
2023/04/24 09:19:03;;;;;;;1.00;0.90;;;;;;;27.82;24.69;99338.24;104598;1257;72731;-66
2023/04/24 09:21:34;;;;;;;2.40;1.30;;;;;;;27.89;24.62;99339.61;104336;1253;60777;-66
2023/04/24 09:24:05;;;;;;;2.00;1.10;;;;;;;28.03;24.31;99335.59;104820;1257;62524;-68
2023/04/24 09:26:35;;;;;;;1.80;1.30;;;;;;;28.10;23.89;99335.36;104991;1259;74128;-70
2023/04/24 09:29:03;;;;;;;0.80;0.80;;;;;;;28.10;23.95;99331.08;104522;1250;69997;-68
2023/04/24 09:31:30;;;;;;;3.10;1.60;;;;;;;28.07;24.18;99338.07;104580;1257;74171;-66
2023/04/24 09:34:03;;;;;;;2.10;1.30;;;;;;;28.07;24.10;99333.64;104954;1253;60542;-65
2023/04/24 09:36:37;;;;;;;2.80;1.10;;;;;;;28.07;23.62;99330.58;104675;1257;60446;-64
2023/04/24 09:39:07;;;;;;;1.20;1.10;;;;;;;28.05;23.92;99335.13;104783;1263;74789;-65
2023/04/24 09:41:35;;;;;;;1.30;0.80;;;;;;;28.03;23.89;99331.84;104416;1257;70218;-65
2023/04/24 09:44:16;;;;;;;1.50;1.10;;;;;;;27.97;24.03;99331.56;104578;1256;74897;-66
2023/04/24 09:46:45;;;;;;;1.30;1.10;;;;;;;27.95;23.65;99332.39;104254;1262;62186;-66
2023/04/24 09:49:14;;;;;;;3.30;1.20;;;;;;;27.91;24.31;99327.98;104283;1261;62143;-64
2023/04/24 09:51:42;;;;;;;2.00;1.20;;;;;;;27.85;24.21;99326.91;104343;1263;74425;-63
2023/04/24 09:54:17;;;;;;;1.90;1.30;;;;;;;27.83;24.08;99323.83;104389;1257;70169;-64
2023/04/24 09:56:45;;;;;;;1.20;0.90;;;;;;;27.83;23.98;99319.69;104309;1255;72917;-64
2023/04/24 09:59:16;;;;;;;0.90;0.90;;;;;;;27.82;23.96;99316.10;104462;1251;60569;-65
2023/04/24 10:01:48;;;;;;;1.20;1.00;;;;;;;27.85;24.35;99308.30;104412;1264;60812;-66
2023/04/24 10:04:17;;;;;;;1.30;1.20;;;;;;;27.85;23.94;99306.89;104496;1250;75721;-67
2023/04/24 10:06:44;;;;;;;1.80;1.00;;;;;;;27.86;23.99;99304.66;104482;1257;72199;-66
2023/04/24 10:09:13;;;;;;;1.00;1.00;;;;;;;27.88;23.69;99296.30;104845;1264;73337;-66
2023/04/24 10:11:41;;;;;;;2.10;0.80;;;;;;;27.95;23.83;99288.92;104414;1266;295909;-66
2023/04/24 10:15:29;;;;;;;1.10;1.00;;;;;;;27.04;25.29;99296.86;101468;1292;616106;-64
2023/04/24 10:17:58;;;;;;;1.00;1.00;;;;;;;28.42;23.38;99287.25;103527;1270;60961;-69
2023/04/24 10:20:27;;;;;;;2.80;1.30;;;;;;;28.55;23.32;99285.72;104021;1269;59487;-64
2023/04/24 10:22:54;;;;;;;1.20;1.10;;;;;;;28.62;23.27;99281.06;103836;1269;71428;-64
2023/04/24 10:25:22;;;;;;;0.90;0.90;;;;;;;28.73;23.11;99277.09;104270;1266;69106;-66
2023/04/24 10:27:50;;;;;;;2.20;1.30;;;;;;;28.88;23.07;99268.45;103821;1266;488607;-66
2023/04/24 10:30:17;;;;;;;1.30;1.20;;;;;;;29.01;23.12;99269.95;104416;1254;59816;-65
2023/04/24 10:32:44;;;;;;;;;;;;;;;29.12;23.40;99274.86;104446;1268;59694;-70
2023/04/24 10:35:12;;;;;;;1.20;1.10;;;;;;;29.23;22.30;99272.19;104631;1255;71712;-67
2023/04/24 10:37:42;;;;;;;1.50;1.10;;;;;;;29.13;22.16;99274.58;105100;1253;70228;-66
2023/04/24 10:40:09;;;;;;;2.40;1.10;;;;;;;29.09;22.33;99276.98;104560;1254;71423;-67
2023/04/24 10:42:41;;;;;;;0.80;0.80;;;;;;;29.09;22.13;99272.90;104590;1257;60818;-68
2023/04/24 10:45:16;;;;;;;1.00;1.00;;;;;;;29.17;22.30;99267.46;104567;1256;59699;-68
2023/04/24 10:47:56;;;;;;;1.70;1.10;;;;;;;29.27;22.27;99271.20;104769;1253;73226;-68
2023/04/24 10:50:24;;;;;;;1.10;1.00;;;;;;;29.35;22.10;99273.43;104576;1254;68895;-67
2023/04/24 10:52:52;;;;;;;3.30;1.20;;;;;;;29.40;21.98;99270.27;104810;1252;72417;-67
2023/04/24 10:55:45;;;;;;;1.00;1.00;;;;;;;29.46;21.47;99264.77;104690;1254;59712;-67
2023/04/24 10:58:13;;;;;;;2.10;1.10;;;;;;;29.53;21.50;99270.36;104805;1252;59759;-68
2023/04/24 11:00:40;;;;;;;1.20;0.90;;;;;;;29.51;21.48;99269.21;104683;1257;72945;-66
2023/04/24 11:03:28;;;;;;;;;;;;;;;29.44;21.65;99268.05;104503;1269;70308;-65
2023/04/24 11:06:02;;;;;;;1.20;1.10;;;;;;;29.41;21.73;99261.19;104430;1259;73232;-66
2023/04/24 11:08:38;;;;;;;1.80;1.30;;;;;;;29.31;22.24;99257.91;104615;1256;60054;-66
2023/04/24 11:11:12;;;;;;;1.30;1.20;;;;;;;29.15;21.79;99267.48;104610;1252;59669;-67
2023/04/24 11:13:55;;;;;;;4.30;1.50;;;;;;;28.76;22.25;99275.00;104623;1256;72410;-65
2023/04/24 11:16:26;;;;;;;1.60;1.50;;;;;;;28.27;22.61;99278.00;104623;1253;69150;-66
2023/04/24 11:19:02;;;;;;;2.00;1.40;;;;;;;28.06;23.32;99276.70;104510;1255;74357;-65
2023/04/24 11:21:55;;;;;;;1.90;1.50;;;;;;;27.86;23.43;99276.50;104409;1254;61351;-65
2023/04/24 11:24:35;;;;;;;2.20;1.70;;;;;;;27.73;23.24;99278.98;104628;1253;59720;-65
2023/04/24 11:27:11;;;;;;;1.80;1.50;;;;;;;27.56;23.90;99285.10;104596;1254;73019;-69
2023/04/24 11:29:59;;;;;;;1.90;1.80;;;;;;;27.41;23.98;99279.27;104921;1254;68657;-66
2023/04/24 11:32:33;;;;;;;1.90;1.50;;;;;;;27.40;24.08;99280.77;104555;1253;72685;-65
2023/04/24 11:35:11;;;;;;;3.00;1.50;;;;;;;27.31;23.54;99283.21;104674;1257;59656;-66
2023/04/24 11:37:39;;;;;;;1.60;1.50;;;;;;;27.31;23.34;99280.75;107680;1252;60994;-66